| time (UTC) | temp F | wind direction | speed MPH | gust MPH | rain 1hr in | rain 24hr in | rain mn in | humidity % | barometer mb |
| 20260902074554 | 61 | 342 | 0.0 | 0.0 | 0.00 | 0.00 | 0.00 | 70 | 1001.8 |
| 20260902073053 | 62 | 342 | 0.0 | 0.0 | 0.00 | 0.00 | 0.00 | 69 | 1001.7 |
| 20260902071537 | 63 | 342 | 0.0 | 0.0 | 0.00 | 0.00 | 0.00 | 68 | 1001.7 |
| 20260902070026 | 63 | 342 | 0.0 | 0.0 | 0.00 | 0.00 | 0.00 | 65 | 1001.6 |
| 20260902064506 | 64 | 342 | 0.0 | 0.0 | 0.00 | 0.00 | 0.00 | 64 | 1001.5 |
| 20260902063011 | 65 | 342 | 0.0 | 0.0 | 0.00 | 0.00 | 0.00 | 62 | 1001.5 |
| 20260902061545 | 65 | 342 | 0.0 | 0.0 | 0.00 | 0.00 | 0.00 | 62 | 1001.7 |
| 20260902060042 | 66 | 342 | 0.0 | 0.0 | 0.00 | 0.00 | 0.00 | 61 | 1001.7 |
| 20260902054532 | 67 | 342 | 0.0 | 0.0 | 0.00 | 0.00 | 0.00 | 59 | 1001.8 |
| 20260902053025 | 68 | 342 | 0.0 | 0.0 | 0.00 | 0.00 | 0.00 | 56 | 1001.8 |
| 20260902051525 | 68 | 342 | 0.0 | 0.0 | 0.00 | 0.00 | 0.00 | 53 | 1001.8 |
| 20260902050019 | 69 | 342 | 0.0 | 0.0 | 0.00 | 0.00 | 0.00 | 48 | 1001.8 |
| 20260902044516 | 70 | 342 | 0.0 | 0.0 | 0.00 | 0.00 | 0.00 | 45 | 1001.8 |
| 20260902043012 | 71 | 342 | 0.0 | 0.0 | 0.00 | 0.00 | 0.00 | 45 | 1001.7 |
| 20260902041510 | 72 | 342 | 0.0 | 0.0 | 0.00 | 0.00 | 0.00 | 44 | 1001.6 |
| 20260902040011 | 72 | 342 | 0.0 | 0.0 | 0.00 | 0.00 | 0.00 | 42 | 1001.6 |
| 20260902034547 | 73 | 342 | 0.0 | 0.0 | 0.00 | 0.00 | 0.00 | 41 | 1001.6 |
| 20260902033053 | 73 | 342 | 0.0 | 0.0 | 0.00 | 0.00 | 0.00 | 42 | 1001.4 |
| 20260902031529 | 74 | 342 | 0.0 | 0.0 | 0.00 | 0.00 | 0.00 | 43 | 1001.4 |
| 20260902030028 | 75 | 342 | 0.0 | 0.0 | 0.00 | 0.00 | 0.00 | 42 | 1001.3 |
| 20260902024511 | 76 | 342 | 0.0 | 0.0 | 0.00 | 0.00 | 0.00 | 41 | 1001.4 |
| 20260902023025 | 77 | 342 | 0.0 | 0.0 | 0.00 | 0.00 | 0.00 | 39 | 1001.4 |
| 20260902021609 | 78 | 342 | 0.0 | 0.0 | 0.00 | 0.00 | 0.00 | 38 | 1001.5 |
| 20260902020052 | 79 | 342 | 0.0 | 0.0 | 0.00 | 0.00 | 0.00 | 36 | 1001.4 |
| 20260902014553 | 79 | 341 | 0.0 | 0.0 | 0.00 | 0.00 | 0.00 | 36 | 1001.4 |
| 20260902013038 | 79 | 341 | 3.0 | 0.0 | 0.00 | 0.00 | 0.00 | 36 | 1001.6 |
| 20260902011537 | 80 | 337 | 3.0 | 0.0 | 0.00 | 0.00 | 0.00 | 37 | 1001.6 |
| 20260902010036 | 82 | 308 | 2.0 | 0.0 | 0.00 | 0.00 | 0.00 | 36 | 1001.8 |
| 20260902004539 | 81 | 257 | 1.0 | 0.0 | 0.00 | 0.00 | 0.00 | 34 | 1001.8 |
| 20260902003036 | 82 | 327 | 2.0 | 0.0 | 0.00 | 0.00 | 0.00 | 32 | 1001.5 |
| 20260902001536 | 83 | 340 | 3.0 | 0.0 | 0.00 | 0.00 | 0.00 | 30 | 1001.5 |
| 20260902000035 | 84 | 333 | 0.0 | 0.0 | 0.00 | 0.00 | 0.00 | 29 | 1001.5 |
| 20260901234534 | 84 | 330 | 3.0 | 0.0 | 0.00 | 0.00 | 0.00 | 28 | 1001.7 |
| 20260901233013 | 85 | 333 | 0.0 | 0.0 | 0.00 | 0.00 | 0.00 | 28 | 1001.9 |
| 20260901231514 | 86 | 333 | 0.0 | 0.0 | 0.00 | 0.00 | 0.00 | 30 | 1002.1 |
| 20260901230107 | 86 | 338 | 2.0 | 0.0 | 0.00 | 0.00 | 0.00 | 30 | 1002.3 |
| 20260901224552 | 86 | 282 | 0.0 | 0.0 | 0.00 | 0.00 | 0.00 | 27 | 1002.6 |
| 20260901223037 | 86 | 277 | 0.0 | 0.0 | 0.00 | 0.00 | 0.00 | 29 | 1002.8 |
| 20260901221534 | 86 | 280 | 0.0 | 0.0 | 0.00 | 0.00 | 0.00 | 29 | 1002.7 |
| 20260901220025 | 86 | 275 | 0.0 | 0.0 | 0.00 | 0.00 | 0.00 | 28 | 1003.1 |
| 20260901214509 | 86 | 267 | 0.0 | 0.0 | 0.00 | 0.00 | 0.00 | 29 | 1003.4 |
| 20260901213112 | 85 | 30 | 0.0 | 0.0 | 0.00 | 0.00 | 0.00 | 32 | 1003.6 |
| 20260901211548 | 84 | 33 | 0.0 | 0.0 | 0.00 | 0.00 | 0.00 | 30 | 1003.8 |
| 20260901210025 | 82 | 42 | 0.0 | 0.0 | 0.00 | 0.00 | 0.00 | 36 | 1004.0 |
| 20260901204534 | 81 | 11 | 0.0 | 0.0 | 0.00 | 0.00 | 0.00 | 35 | 1004.2 |
| 20260901203022 | 81 | 36 | 0.0 | 0.0 | 0.00 | 0.00 | 0.00 | 39 | 1004.4 |
| 20260901201507 | 81 | 13 | 0.0 | 0.0 | 0.00 | 0.00 | 0.00 | 36 | 1004.5 |
| 20260901200047 | 82 | 334 | 0.0 | 0.0 | 0.00 | 0.00 | 0.00 | 36 | 1004.8 |
| 20260901194549 | 80 | 337 | 3.0 | 0.0 | 0.00 | 0.00 | 0.00 | 32 | 1004.9 |
| 20260901193022 | 78 | 327 | 0.0 | 0.0 | 0.00 | 0.00 | 0.00 | 36 | 1005.2 |
| 20260901191521 | 77 | 334 | 0.0 | 0.0 | 0.00 | 0.00 | 0.00 | 49 | 1005.6 |
| 20260901190007 | 75 | 334 | 0.0 | 0.0 | 0.00 | 0.00 | 0.00 | 54 | 1005.9 |
| 20260901184502 | 75 | 279 | 0.0 | 0.0 | 0.00 | 0.00 | 0.00 | 51 | 1006.2 |
| 20260901183049 | 75 | 277 | 0.0 | 0.0 | 0.00 | 0.00 | 0.00 | 52 | 1006.0 |
| 20260901181547 | 75 | 267 | 0.0 | 0.0 | 0.00 | 0.00 | 0.00 | 51 | 1006.0 |
| 20260901180025 | 75 | 199 | 3.0 | 0.0 | 0.00 | 0.00 | 0.00 | 49 | 1005.6 |
| 20260901174525 | 75 | 207 | 4.0 | 0.0 | 0.00 | 0.00 | 0.00 | 49 | 1005.4 |
| 20260901173007 | 74 | 200 | 6.0 | 0.0 | 0.00 | 0.00 | 0.00 | 50 | 1005.4 |
| 20260901171507 | 74 | 218 | 5.0 | 0.0 | 0.00 | 0.00 | 0.00 | 50 | 1005.4 |
| 20260901170101 | 73 | 215 | 6.0 | 0.0 | 0.00 | 0.00 | 0.00 | 51 | 1005.6 |
| 20260901164548 | 72 | 213 | 6.0 | 0.0 | 0.00 | 0.00 | 0.00 | 51 | 1005.8 |
| 20260901163032 | 73 | 229 | 8.0 | 0.0 | 0.00 | 0.00 | 0.00 | 49 | 1005.9 |
| 20260901161535 | 76 | 213 | 5.0 | 0.0 | 0.00 | 0.00 | 0.00 | 45 | 1005.7 |
| 20260901160011 | 77 | 198 | 6.0 | 0.0 | 0.00 | 0.00 | 0.00 | 42 | 1005.5 |
| 20260901154507 | 74 | 196 | 7.0 | 0.0 | 0.00 | 0.00 | 0.00 | 46 | 1005.2 |
| 20260901153049 | 74 | 195 | 3.0 | 0.0 | 0.00 | 0.00 | 0.00 | 46 | 1005.4 |
| 20260901151546 | 73 | 190 | 0.0 | 0.0 | 0.00 | 0.00 | 0.00 | 48 | 1005.2 |
| 20260901150033 | 70 | 194 | 0.0 | 0.0 | 0.00 | 0.00 | 0.00 | 51 | 1005.3 |
| 20260901144532 | 68 | 190 | 0.0 | 0.0 | 0.00 | 0.00 | 0.00 | 52 | 1005.3 |
| 20260901143042 | 67 | 190 | 0.0 | 0.0 | 0.00 | 0.00 | 0.00 | 52 | 1005.2 |
| 20260901141531 | 65 | 195 | 0.0 | 0.0 | 0.00 | 0.00 | 0.00 | 55 | 1005.0 |
| 20260901140042 | 64 | 105 | 0.0 | 0.0 | 0.00 | 0.00 | 0.00 | 56 | 1005.1 |
| 20260901134531 | 63 | 103 | 0.0 | 0.0 | 0.00 | 0.00 | 0.00 | 54 | 1005.2 |
| 20260901133030 | 64 | 187 | 0.0 | 0.0 | 0.00 | 0.00 | 0.00 | 54 | 1005.1 |
| 20260901131533 | 64 | 187 | 0.0 | 0.0 | 0.00 | 0.00 | 0.00 | 53 | 1005.1 |
| 20260901130027 | 64 | 187 | 0.0 | 0.0 | 0.00 | 0.00 | 0.00 | 52 | 1005.1 |
| 20260901124510 | 65 | 187 | 0.0 | 0.0 | 0.00 | 0.00 | 0.00 | 51 | 1004.9 |
| 20260901123051 | 65 | 187 | 0.0 | 0.0 | 0.00 | 0.00 | 0.00 | 49 | 1004.8 |
| 20260901121552 | 65 | 187 | 0.0 | 0.0 | 0.00 | 0.00 | 0.00 | 49 | 1004.6 |
| 20260901120047 | 66 | 183 | 0.0 | 0.0 | 0.00 | 0.00 | 0.00 | 48 | 1004.8 |
| 20260901114531 | 67 | 183 | 0.0 | 0.0 | 0.00 | 0.00 | 0.00 | 42 | 1004.9 |
| 20260901113013 | 68 | 183 | 0.0 | 0.0 | 0.00 | 0.00 | 0.00 | 41 | 1004.6 |
| 20260901111512 | 68 | 171 | 0.0 | 0.0 | 0.00 | 0.00 | 0.00 | 41 | 1004.4 |
| 20260901110058 | 67 | 156 | 0.0 | 0.0 | 0.00 | 0.00 | 0.00 | 40 | 1004.2 |
| 20260901104555 | 65 | 153 | 0.0 | 0.0 | 0.00 | 0.00 | 0.00 | 40 | 1004.1 |
| 20260901103037 | 64 | 149 | 0.0 | 0.0 | 0.00 | 0.00 | 0.00 | 40 | 1004.0 |
| 20260901101535 | 67 | 129 | 0.0 | 0.0 | 0.00 | 0.00 | 0.00 | 34 | 1003.9 |
| 20260901100021 | 68 | 128 | 0.0 | 0.0 | 0.00 | 0.00 | 0.00 | 33 | 1003.9 |
| 20260901094527 | 68 | 128 | 0.0 | 0.0 | 0.00 | 0.00 | 0.00 | 32 | 1004.0 |
| 20260901093019 | 67 | 123 | 0.0 | 0.0 | 0.00 | 0.00 | 0.00 | 33 | 1004.1 |
| 20260901091518 | 67 | 121 | 0.0 | 0.0 | 0.00 | 0.00 | 0.00 | 33 | 1004.3 |
| 20260901090018 | 67 | 121 | 0.0 | 0.0 | 0.00 | 0.00 | 0.00 | 33 | 1004.4 |
| 20260901084516 | 67 | 116 | 0.0 | 0.0 | 0.00 | 0.00 | 0.00 | 34 | 1004.5 |
| 20260901083014 | 66 | 112 | 0.0 | 0.0 | 0.00 | 0.00 | 0.00 | 34 | 1004.7 |
| 20260901081512 | 66 | 111 | 0.0 | 0.0 | 0.00 | 0.00 | 0.00 | 35 | 1005.0 |
| 20260901080053 | 65 | 111 | 0.0 | 0.0 | 0.00 | 0.00 | 0.00 | 35 | 1005.1 |